createdAt,value
2018-03-06T00:01:36.141Z,5.70
2018-03-06T00:04:04.705Z,5.60
2018-03-06T00:06:33.274Z,5.50
2018-03-06T00:09:01.856Z,5.40
2018-03-06T00:11:30.454Z,5.40
2018-03-06T00:13:59.037Z,5.40
2018-03-06T00:16:27.600Z,5.20
2018-03-06T00:18:56.939Z,4.90
2018-03-06T00:21:25.507Z,4.90
2018-03-06T00:23:54.192Z,4.90
2018-03-06T00:26:22.762Z,4.90
2018-03-06T00:28:52.094Z,4.90
2018-03-06T00:31:20.667Z,4.80
2018-03-06T00:33:49.237Z,4.90
2018-03-06T00:36:17.909Z,4.80
2018-03-06T00:38:46.349Z,4.90
2018-03-06T00:41:15.493Z,4.80
2018-03-06T00:43:44.260Z,4.80
2018-03-06T00:46:13.582Z,4.90
2018-03-06T00:48:42.166Z,4.90
2018-03-06T00:51:10.733Z,4.90
2018-03-06T00:53:40.065Z,5.00
2018-03-06T00:56:08.641Z,5.00
2018-03-06T00:58:37.206Z,5.00
2018-03-06T01:01:05.448Z,5.20
2018-03-06T01:03:34.010Z,5.60
2018-03-06T01:06:02.583Z,6.00
2018-03-06T01:08:31.162Z,6.40
2018-03-06T01:10:59.412Z,6.70
2018-03-06T01:13:27.980Z,7.10
2018-03-06T01:15:56.560Z,7.30
2018-03-06T01:18:25.916Z,7.60
2018-03-06T01:20:54.493Z,7.50
2018-03-06T01:23:23.065Z,7.60
2018-03-06T01:25:51.616Z,7.60
2018-03-06T01:28:20.212Z,7.60
2018-03-06T01:30:48.772Z,7.50
2018-03-06T01:33:18.194Z,7.40
2018-03-06T01:35:46.751Z,7.40
2018-03-06T01:38:16.084Z,7.70
2018-03-06T01:40:44.644Z,7.70
2018-03-06T01:43:13.200Z,8.00
2018-03-06T01:45:43.283Z,8.20
2018-03-06T01:48:11.851Z,8.20
2018-03-06T01:50:40.430Z,8.30
2018-03-06T01:53:08.980Z,8.50
2018-03-06T01:55:38.315Z,8.60
2018-03-06T01:58:06.879Z,8.60
2018-03-06T02:00:35.460Z,8.60
2018-03-06T02:03:04.798Z,8.50
2018-03-06T02:05:33.323Z,8.50
2018-03-06T02:08:02.333Z,8.50
2018-03-06T02:10:30.900Z,8.50
2018-03-06T02:12:59.486Z,8.50
2018-03-06T02:15:28.814Z,8.40
2018-03-06T02:17:57.372Z,8.40
2018-03-06T02:20:26.697Z,8.50
2018-03-06T02:22:55.282Z,8.50
2018-03-06T02:25:23.843Z,8.50
2018-03-06T02:27:53.214Z,8.40
2018-03-06T02:30:21.788Z,8.40
2018-03-06T02:32:50.340Z,8.40
2018-03-06T02:35:18.924Z,8.30
2018-03-06T02:37:47.491Z,8.40
2018-03-06T02:40:16.073Z,8.30
2018-03-06T02:42:44.625Z,8.30
2018-03-06T02:45:13.201Z,8.30
2018-03-06T02:47:41.796Z,8.30
2018-03-06T02:50:11.139Z,8.20
2018-03-06T02:52:39.707Z,8.20
2018-03-06T02:55:08.280Z,8.10
2018-03-06T02:57:37.611Z,8.00
2018-03-06T03:00:05.518Z,8.00
2018-03-06T03:02:34.858Z,8.00
2018-03-06T03:05:03.417Z,8.00
2018-03-06T03:07:32.751Z,8.00
2018-03-06T03:10:01.325Z,7.90
2018-03-06T03:12:29.885Z,8.00
2018-03-06T03:14:58.276Z,8.00
2018-03-06T03:17:26.838Z,8.00
2018-03-06T03:19:56.175Z,8.00
2018-03-06T03:22:24.727Z,8.00
2018-03-06T03:24:54.065Z,7.90
2018-03-06T03:27:22.646Z,7.90
2018-03-06T03:29:51.201Z,7.90
2018-03-06T03:32:20.532Z,7.80
2018-03-06T03:34:49.109Z,7.80
2018-03-06T03:37:17.682Z,7.70
2018-03-06T03:39:46.240Z,7.60
2018-03-06T03:42:15.603Z,7.40
2018-03-06T03:44:44.175Z,7.40
2018-03-06T03:47:12.728Z,7.20
2018-03-06T03:49:41.109Z,7.20
2018-03-06T03:52:09.680Z,7.10
2018-03-06T03:54:38.249Z,7.10
2018-03-06T03:57:07.585Z,6.90
2018-03-06T03:59:36.163Z,6.90
2018-03-06T04:02:04.721Z,6.80
2018-03-06T04:04:34.048Z,6.80
2018-03-06T04:07:02.625Z,6.80
2018-03-06T04:09:31.187Z,6.80
2018-03-06T04:12:00.536Z,6.90
2018-03-06T04:14:29.100Z,6.90
2018-03-06T04:16:57.683Z,6.90
2018-03-06T04:19:26.253Z,6.80
2018-03-06T04:21:54.836Z,6.70
2018-03-06T04:24:23.230Z,6.70
2018-03-06T04:26:51.790Z,6.60
2018-03-06T04:29:20.359Z,6.60
2018-03-06T04:31:49.692Z,6.50
2018-03-06T04:34:18.249Z,6.40
2018-03-06T04:36:46.479Z,6.30
2018-03-06T04:39:15.060Z,6.10
2018-03-06T04:41:43.444Z,6.00
2018-03-06T04:44:12.006Z,6.00
2018-03-06T04:46:40.581Z,6.00
2018-03-06T04:49:09.144Z,6.00
2018-03-06T04:51:37.717Z,6.00
2018-03-06T04:54:06.276Z,6.00
2018-03-06T04:56:35.645Z,6.00
2018-03-06T04:59:04.210Z,5.90
2018-03-06T05:01:32.775Z,5.80
2018-03-06T05:04:01.354Z,5.70
2018-03-06T05:06:29.920Z,5.50
2018-03-06T05:08:59.276Z,5.20
2018-03-06T05:11:27.841Z,5.20
2018-03-06T05:13:56.417Z,5.10
2018-03-06T05:16:25.013Z,5.00
2018-03-06T05:18:53.631Z,5.00
2018-03-06T05:21:22.169Z,5.00
2018-03-06T05:23:50.728Z,4.90
2018-03-06T05:26:19.323Z,4.80
2018-03-06T05:28:47.888Z,4.70
2018-03-06T05:31:16.472Z,4.70
2018-03-06T05:33:45.037Z,4.70
2018-03-06T05:36:14.208Z,4.80
2018-03-06T05:38:42.778Z,4.80
2018-03-06T05:41:11.343Z,4.80
2018-03-06T05:43:39.929Z,4.80
2018-03-06T05:46:08.492Z,4.90
2018-03-06T05:48:37.072Z,4.90
2018-03-06T05:51:05.639Z,5.00
2018-03-06T05:53:35.010Z,5.00
2018-03-06T05:56:03.582Z,5.00
2018-03-06T05:58:32.144Z,5.00
2018-03-06T06:01:00.747Z,5.10
2018-03-06T06:03:29.318Z,5.00
2018-03-06T06:05:57.903Z,4.90
2018-03-06T06:08:28.024Z,4.90
2018-03-06T06:10:56.610Z,4.90
2018-03-06T06:13:25.267Z,4.70
2018-03-06T06:15:53.469Z,4.60
2018-03-06T06:18:21.854Z,4.50
2018-03-06T06:20:50.237Z,4.50
2018-03-06T06:23:18.616Z,4.40
2018-03-06T06:25:47.015Z,4.40
2018-03-06T06:28:16.215Z,4.30
2018-03-06T06:30:45.552Z,4.30
2018-03-06T06:33:13.955Z,4.30
2018-03-06T06:35:42.324Z,4.40
2018-03-06T06:38:10.764Z,4.40
2018-03-06T06:40:39.164Z,4.40
2018-03-06T06:43:07.543Z,4.40
2018-03-06T06:45:35.928Z,4.50
2018-03-06T06:48:04.511Z,4.50
2018-03-06T06:50:33.052Z,4.60
2018-03-06T06:53:02.211Z,4.90
2018-03-06T06:55:30.594Z,4.90
2018-03-06T06:57:58.984Z,5.10
2018-03-06T07:00:27.354Z,5.30
2018-03-06T07:02:55.732Z,5.50
2018-03-06T07:05:24.097Z,5.60
2018-03-06T07:07:52.547Z,5.70
2018-03-06T07:10:20.978Z,5.80
2018-03-06T07:12:49.499Z,5.90
2018-03-06T07:15:17.871Z,6.00
2018-03-06T07:17:46.238Z,6.00
2018-03-06T07:23:05.976Z,6.20
2018-03-06T07:25:34.390Z,6.30
2018-03-06T07:28:03.538Z,6.50
2018-03-06T07:30:31.956Z,6.40
2018-03-06T07:33:00.418Z,6.60
2018-03-06T07:35:28.817Z,6.70
2018-03-06T07:37:57.206Z,6.80
2018-03-06T07:40:25.593Z,6.90
2018-03-06T07:42:54.749Z,7.20
2018-03-06T07:45:23.190Z,7.20
2018-03-06T07:47:51.742Z,7.30
2018-03-06T07:50:20.130Z,7.40
2018-03-06T07:52:49.304Z,7.60
2018-03-06T07:55:18.820Z,7.60
2018-03-06T07:57:47.209Z,7.60
2018-03-06T08:00:16.376Z,7.70
2018-03-06T08:02:45.630Z,7.80
2018-03-06T08:05:15.177Z,7.90
2018-03-06T08:10:14.548Z,8.10
2018-03-06T09:34:08.329Z,11.40
2018-03-06T09:36:37.974Z,11.20
2018-03-06T09:39:06.531Z,11.20
2018-03-06T09:41:36.478Z,11.50
2018-03-06T09:44:05.340Z,11.50
2018-03-06T09:46:34.158Z,11.70
2018-03-06T09:49:03.107Z,11.90
2018-03-06T09:51:32.729Z,12.00
2018-03-06T09:54:01.648Z,12.00
2018-03-06T09:56:30.431Z,11.90
2018-03-06T09:58:59.283Z,11.90
2018-03-06T10:01:28.872Z,12.20
2018-03-06T10:03:57.658Z,12.10
2018-03-06T10:06:26.484Z,12.40
2018-03-06T10:08:55.425Z,12.40
2018-03-06T10:16:26.512Z,11.80
2018-03-06T10:18:55.013Z,11.90
2018-03-06T10:21:25.344Z,12.10
2018-03-06T10:23:54.222Z,12.20
2018-03-06T10:26:24.193Z,12.10
2018-03-06T11:05:02.792Z,12.70
2018-03-06T11:07:32.707Z,12.40
2018-03-06T11:10:03.032Z,12.50
2018-03-06T11:12:32.914Z,12.20
2018-03-06T11:15:02.960Z,12.50
2018-03-06T11:17:32.735Z,12.40
2018-03-06T11:20:01.547Z,12.60
2018-03-06T11:22:30.515Z,12.20
2018-03-06T11:24:59.299Z,12.60
2018-03-06T11:27:28.176Z,12.00
2018-03-06T11:32:27.671Z,11.80
2018-03-06T11:34:56.514Z,11.80
2018-03-06T11:37:25.497Z,11.80
2018-03-06T11:39:54.323Z,12.20
2018-03-06T11:42:24.051Z,11.50
2018-03-06T11:44:52.918Z,11.50
2018-03-06T11:47:22.531Z,11.70
2018-03-06T11:49:52.144Z,11.60
2018-03-06T11:52:20.995Z,11.60
2018-03-06T11:54:50.617Z,11.20
2018-03-06T11:57:19.509Z,11.20
2018-03-06T11:59:49.162Z,11.20
2018-03-06T12:02:17.998Z,11.20
2018-03-06T12:04:46.908Z,12.10
2018-03-06T12:07:16.514Z,12.90
2018-03-06T12:09:45.387Z,12.90
2018-03-06T12:12:15.046Z,13.10
2018-03-06T12:14:43.868Z,13.10
2018-03-06T12:17:12.703Z,12.10
2018-03-06T12:19:41.604Z,11.10
2018-03-06T12:22:10.823Z,11.30
2018-03-06T12:24:39.692Z,11.90
2018-03-06T12:27:08.969Z,12.20
2018-03-06T12:29:38.680Z,12.00
2018-03-06T12:32:07.499Z,12.00
2018-03-06T12:34:36.425Z,11.50
2018-03-06T12:37:05.415Z,11.60
2018-03-06T12:39:34.279Z,12.00
2018-03-06T12:42:03.135Z,11.60
2018-03-06T12:44:32.024Z,11.50
2018-03-06T12:47:00.888Z,11.00
2018-03-06T12:49:30.452Z,10.80
2018-03-06T12:51:59.351Z,10.80
2018-03-06T12:54:28.212Z,10.70
2018-03-06T12:56:57.630Z,10.80
2018-03-06T12:59:26.473Z,11.10
2018-03-06T13:01:55.364Z,11.00
2018-03-06T13:04:24.944Z,10.90
2018-03-06T13:06:53.837Z,10.90
2018-03-06T13:09:22.655Z,11.50
2018-03-06T13:11:53.372Z,12.10
2018-03-06T13:14:22.183Z,12.10
2018-03-06T13:16:51.100Z,11.50
2018-03-06T13:19:19.952Z,12.20
2018-03-06T13:21:50.975Z,12.20
2018-03-06T13:24:19.881Z,12.20
2018-03-06T13:26:49.247Z,13.00
2018-03-06T13:29:18.917Z,13.50
2018-03-06T13:31:47.827Z,13.50
2018-03-06T13:34:16.719Z,13.90
2018-03-06T13:36:45.563Z,14.00
2018-03-06T13:39:15.151Z,14.50
2018-03-06T13:41:44.060Z,14.60
2018-03-06T13:44:13.181Z,14.50
2018-03-06T13:46:42.025Z,13.60
2018-03-06T13:49:15.850Z,13.10
2018-03-06T13:51:44.800Z,13.00
2018-03-06T13:54:13.602Z,12.50
2018-03-06T13:56:42.790Z,12.00
2018-03-06T13:59:11.609Z,12.50
2018-03-06T14:01:40.551Z,13.10
2018-03-06T14:04:09.451Z,13.10
2018-03-06T14:06:38.344Z,13.20
2018-03-06T14:09:07.229Z,12.40
2018-03-06T14:11:36.064Z,11.80
2018-03-06T14:14:04.946Z,11.40
2018-03-06T14:16:33.751Z,11.20
2018-03-06T14:19:03.380Z,11.20
2018-03-06T14:21:32.209Z,11.20
2018-03-06T14:24:01.018Z,11.00
2018-03-06T14:26:30.574Z,11.00
2018-03-06T14:28:59.106Z,11.10
2018-03-06T14:31:27.942Z,11.10
2018-03-06T14:33:56.736Z,11.00
2018-03-06T14:36:25.572Z,10.90
2018-03-06T14:38:55.012Z,10.90
2018-03-06T14:41:23.864Z,10.60
2018-03-06T14:43:52.701Z,10.60
2018-03-06T14:46:21.510Z,10.50
2018-03-06T14:48:50.354Z,10.60
2018-03-06T14:51:19.953Z,10.80
2018-03-06T14:53:49.644Z,10.80
2018-03-06T14:56:19.379Z,10.80
2018-03-06T14:58:54.407Z,10.70
2018-03-06T15:01:25.933Z,10.90
2018-03-06T15:04:07.563Z,10.80
2018-03-06T15:06:36.499Z,10.40
2018-03-06T15:09:04.759Z,10.30
2018-03-06T15:11:33.644Z,10.30
2018-03-06T15:14:02.487Z,10.10
2018-03-06T15:16:32.109Z,10.00
2018-03-06T15:19:01.818Z,9.90
2018-03-06T15:21:31.431Z,9.90
2018-03-06T15:24:05.550Z,9.90
2018-03-06T15:26:36.480Z,9.70
2018-03-06T16:09:04.031Z,8.70
2018-03-06T16:11:32.460Z,8.70
2018-03-06T16:14:00.908Z,8.70
2018-03-06T16:16:30.107Z,8.60
2018-03-06T16:18:58.513Z,8.60
2018-03-06T16:21:27.718Z,8.50
2018-03-06T16:23:57.041Z,8.50
2018-03-06T16:26:25.498Z,8.50
2018-03-06T16:28:54.841Z,8.50
2018-03-06T16:31:23.082Z,8.50
2018-03-06T16:33:52.263Z,8.60
2018-03-06T16:36:21.438Z,8.60
2018-03-06T16:38:49.903Z,8.60
2018-03-06T16:41:18.319Z,8.60
2018-03-06T16:43:47.513Z,8.50
2018-03-06T16:46:16.713Z,8.60
2018-03-06T16:48:45.941Z,8.70
2018-03-06T16:51:14.780Z,8.60
2018-03-06T16:53:43.229Z,8.70
2018-03-06T16:56:11.643Z,8.70
2018-03-06T16:58:40.057Z,8.70
2018-03-06T17:01:08.494Z,8.70
2018-03-06T17:03:38.483Z,8.80
2018-03-06T17:06:06.809Z,8.80
2018-03-06T17:08:36.044Z,8.70
2018-03-06T17:11:04.454Z,8.70
2018-03-06T17:13:32.703Z,8.80
2018-03-06T17:16:01.155Z,8.80
2018-03-06T17:18:30.342Z,8.60
2018-03-06T17:20:59.577Z,8.60
2018-03-06T17:23:28.066Z,8.60
2018-03-06T17:25:56.513Z,8.60
2018-03-06T17:28:24.976Z,8.60
2018-03-06T17:30:54.210Z,8.80
2018-03-06T17:33:22.611Z,8.80
2018-03-06T17:35:50.841Z,8.90
2018-03-06T17:38:20.067Z,8.90
2018-03-06T17:40:48.510Z,8.80
2018-03-06T17:43:17.686Z,8.60
2018-03-06T17:45:46.105Z,8.60
2018-03-06T17:48:14.539Z,8.50
2018-03-06T17:50:42.947Z,8.50
2018-03-06T17:53:12.142Z,8.70
2018-03-06T17:55:42.122Z,8.80
2018-03-06T17:58:10.694Z,8.70
2018-03-06T18:00:39.328Z,8.80
2018-03-06T18:03:08.670Z,8.70
2018-03-06T18:05:37.092Z,8.70
2018-03-06T18:08:04.835Z,8.70
2018-03-06T18:10:33.350Z,8.70
2018-03-06T18:13:02.533Z,8.60
2018-03-06T18:15:30.954Z,8.50
2018-03-06T18:17:59.631Z,8.60
2018-03-06T18:20:28.111Z,8.60
2018-03-06T18:22:56.541Z,8.60
2018-03-06T18:25:24.952Z,8.60
2018-03-06T18:27:54.164Z,8.60
2018-03-06T18:30:22.579Z,8.60
2018-03-06T18:32:51.762Z,8.30
2018-03-06T18:35:20.266Z,8.30
2018-03-06T18:37:48.704Z,8.30
2018-03-06T18:40:17.116Z,8.20
2018-03-06T18:42:45.597Z,8.30
2018-03-06T18:45:14.087Z,8.30
2018-03-06T18:47:42.545Z,8.20
2018-03-06T18:50:22.278Z,8.20
2018-03-06T18:52:50.717Z,8.10
2018-03-06T18:55:19.914Z,8.00
2018-03-06T18:57:49.797Z,8.10
2018-03-06T19:03:43.690Z,8.00
2018-03-06T19:06:23.228Z,8.00
2018-03-06T19:08:50.975Z,7.90
2018-03-06T19:11:19.419Z,7.90
2018-03-06T19:13:48.016Z,7.90
2018-03-06T19:16:16.547Z,7.80
2018-03-06T19:18:45.732Z,7.80
2018-03-06T19:21:14.139Z,7.80
2018-03-06T19:23:42.561Z,7.80
2018-03-06T19:26:11.010Z,7.80
2018-03-06T19:28:40.213Z,7.80
2018-03-06T19:31:09.390Z,7.80
2018-03-06T19:33:37.827Z,7.80
2018-03-06T19:36:06.253Z,7.80
2018-03-06T19:38:34.697Z,7.70
2018-03-06T19:41:03.337Z,7.60
2018-03-06T19:43:32.512Z,7.40
2018-03-06T19:46:00.877Z,7.40
2018-03-06T19:48:29.253Z,7.40
2018-03-06T19:50:57.689Z,7.30
2018-03-06T19:53:26.054Z,7.30
2018-03-06T19:55:54.440Z,7.20
2018-03-06T19:58:22.821Z,7.20
2018-03-06T20:00:51.205Z,7.20
2018-03-06T20:03:19.588Z,7.20
2018-03-06T20:05:48.000Z,7.10
2018-03-06T20:08:16.053Z,7.20
2018-03-06T20:10:44.445Z,7.10
2018-03-06T20:13:15.826Z,7.10
2018-03-06T20:15:44.977Z,7.20
2018-03-06T20:18:13.385Z,7.20
2018-03-06T20:20:41.760Z,7.20
2018-03-06T20:23:09.831Z,7.10
2018-03-06T20:25:43.285Z,7.10
2018-03-06T20:28:11.612Z,7.10
2018-03-06T20:30:45.406Z,7.10
2018-03-06T20:33:17.820Z,7.10
2018-03-06T20:35:46.208Z,7.00
2018-03-06T20:38:20.182Z,7.00
2018-03-06T20:40:48.598Z,6.90
2018-03-06T20:43:17.062Z,6.90
2018-03-06T20:45:50.981Z,6.90
2018-03-06T20:48:19.392Z,6.80
2018-03-06T20:50:47.784Z,6.80
2018-03-06T20:53:21.606Z,6.80
2018-03-06T20:55:50.000Z,6.80
2018-03-06T20:58:19.145Z,6.80
2018-03-06T21:00:47.536Z,6.80
2018-03-06T21:03:15.913Z,6.80
2018-03-06T21:05:44.306Z,6.80
2018-03-06T21:08:12.753Z,6.80
2018-03-06T21:10:41.163Z,6.80
2018-03-06T21:13:09.785Z,6.90
2018-03-06T21:15:38.942Z,6.80
2018-03-06T21:18:07.334Z,6.80
2018-03-06T21:20:35.729Z,6.90
2018-03-06T21:23:04.893Z,6.80
2018-03-06T21:25:33.293Z,6.80
2018-03-06T21:28:01.688Z,6.70
2018-03-06T21:30:30.825Z,6.70
2018-03-06T21:32:59.216Z,6.70
2018-03-06T21:35:28.986Z,6.60
2018-03-06T21:37:57.357Z,6.60
2018-03-06T21:40:25.766Z,6.60
2018-03-06T21:42:54.152Z,6.50
2018-03-06T21:45:22.532Z,6.50
2018-03-06T21:47:50.933Z,6.40
2018-03-06T21:50:19.322Z,6.40
2018-03-06T21:52:47.698Z,6.40
2018-03-06T21:55:16.085Z,6.40
2018-03-06T21:57:44.486Z,6.40
2018-03-06T22:00:13.513Z,6.40
2018-03-06T22:02:41.888Z,6.30
2018-03-06T22:05:10.266Z,6.30
2018-03-06T22:07:38.692Z,6.20
2018-03-06T22:10:07.079Z,6.20
2018-03-06T22:12:36.271Z,6.10
2018-03-06T22:15:04.763Z,6.10
2018-03-06T22:17:33.178Z,6.10
2018-03-06T22:20:01.574Z,6.00
2018-03-06T22:22:29.944Z,6.00
2018-03-06T22:24:58.344Z,6.00
2018-03-06T22:27:26.718Z,6.00
2018-03-06T22:29:55.100Z,6.00
2018-03-06T22:32:23.472Z,6.00
2018-03-06T22:34:51.928Z,5.90
2018-03-06T22:37:20.309Z,6.00
2018-03-06T22:39:48.684Z,5.90
2018-03-06T22:42:16.728Z,5.90
2018-03-06T22:44:45.136Z,5.90
2018-03-06T22:47:13.512Z,5.90
2018-03-06T22:49:41.902Z,5.80
2018-03-06T22:52:10.306Z,5.80
2018-03-06T22:54:38.677Z,5.90
2018-03-06T22:57:07.077Z,5.90
2018-03-06T22:59:36.229Z,5.80
2018-03-06T23:02:04.604Z,5.80
2018-03-06T23:04:32.984Z,5.80
2018-03-06T23:07:01.365Z,5.80
2018-03-06T23:09:29.430Z,5.80
2018-03-06T23:11:57.804Z,5.80
2018-03-06T23:14:26.184Z,5.80
2018-03-06T23:16:54.563Z,5.80
2018-03-06T23:19:22.935Z,5.80
2018-03-06T23:21:51.349Z,5.70
2018-03-06T23:24:19.718Z,5.60
2018-03-06T23:26:48.125Z,5.60
2018-03-06T23:29:17.366Z,5.50
2018-03-06T23:31:45.766Z,5.50
2018-03-06T23:34:14.135Z,5.40
2018-03-06T23:36:42.507Z,5.30
2018-03-06T23:39:10.895Z,5.20
2018-03-06T23:41:39.285Z,5.20
2018-03-06T23:44:07.672Z,5.10
2018-03-06T23:46:36.098Z,5.00
2018-03-06T23:49:04.496Z,5.00
2018-03-06T23:51:32.892Z,4.90
2018-03-06T23:54:01.082Z,4.90
2018-03-06T23:56:29.464Z,4.80
2018-03-06T23:58:57.806Z,4.80
